createdAt,value
2023-03-05T00:01:08.620Z,100.00
2023-03-05T00:03:36.992Z,100.00
2023-03-05T00:06:07.407Z,100.00
2023-03-05T00:08:36.028Z,100.00
2023-03-05T00:11:07.046Z,100.00
2023-03-05T00:13:35.904Z,100.00
2023-03-05T00:16:04.711Z,100.00
2023-03-05T00:18:32.870Z,100.00
2023-03-05T00:21:00.861Z,100.00
2023-03-05T00:23:30.492Z,100.00
2023-03-05T00:25:58.588Z,100.00
2023-03-05T00:28:26.634Z,100.00
2023-03-05T00:30:54.754Z,100.00
2023-03-05T00:33:22.838Z,100.00
2023-03-05T00:35:51.038Z,100.00
2023-03-05T00:38:19.170Z,99.62
2023-03-05T00:40:52.139Z,98.52
2023-03-05T00:43:20.223Z,98.15
2023-03-05T00:45:48.224Z,97.87
2023-03-05T00:48:16.253Z,97.44
2023-03-05T00:50:44.407Z,97.14
2023-03-05T00:53:12.447Z,96.91
2023-03-05T00:55:40.559Z,97.19
2023-03-05T00:58:10.392Z,96.81
2023-03-05T01:00:38.582Z,97.04
2023-03-05T01:03:06.802Z,97.38
2023-03-05T01:05:35.047Z,97.57
2023-03-05T01:08:03.241Z,98.88
2023-03-05T01:10:31.562Z,98.57
2023-03-05T01:12:59.589Z,98.71
2023-03-05T01:15:29.035Z,99.32
2023-03-05T01:17:57.063Z,99.72
2023-03-05T01:20:25.173Z,100.00
2023-03-05T01:22:53.987Z,100.00
2023-03-05T01:25:22.139Z,99.74
2023-03-05T01:27:50.216Z,99.75
2023-03-05T01:30:18.457Z,100.00
2023-03-05T01:32:48.017Z,99.82
2023-03-05T01:35:19.328Z,100.00
2023-03-05T01:37:47.524Z,100.00
2023-03-05T01:40:18.578Z,100.00
2023-03-05T01:42:48.193Z,100.00
2023-03-05T01:45:19.475Z,100.00
2023-03-05T01:47:49.110Z,100.00
2023-03-05T01:50:20.908Z,100.00
2023-03-05T01:52:52.580Z,100.00
2023-03-05T01:55:23.692Z,100.00
2023-03-05T01:57:55.247Z,100.00
2023-03-05T02:00:29.087Z,100.00
2023-03-05T02:03:02.763Z,100.00
2023-03-05T02:05:33.399Z,100.00
2023-03-05T02:08:03.355Z,100.00
2023-03-05T02:10:34.135Z,100.00
2023-03-05T02:13:05.262Z,100.00
2023-03-05T02:15:34.537Z,100.00
2023-03-05T02:18:04.126Z,100.00
2023-03-05T02:20:44.664Z,100.00
2023-03-05T02:23:14.084Z,100.00
2023-03-05T02:25:42.208Z,100.00
2023-03-05T02:28:16.561Z,100.00
2023-03-05T02:30:44.720Z,100.00
2023-03-05T02:33:14.370Z,100.00
2023-03-05T02:35:43.804Z,100.00
2023-03-05T02:38:13.870Z,100.00
2023-03-05T02:40:41.902Z,100.00
2023-03-05T02:43:10.573Z,100.00
2023-03-05T02:45:39.051Z,100.00
2023-03-05T02:48:07.824Z,100.00
2023-03-05T02:50:36.658Z,100.00
2023-03-05T02:53:04.798Z,100.00
2023-03-05T02:55:34.178Z,100.00
2023-03-05T02:58:02.548Z,100.00
2023-03-05T03:00:31.222Z,100.00
2023-03-05T03:02:59.293Z,100.00
2023-03-05T03:05:27.543Z,100.00
2023-03-05T03:07:55.557Z,100.00
2023-03-05T03:10:23.826Z,100.00
2023-03-05T03:12:53.185Z,100.00
2023-03-05T03:15:21.357Z,100.00
2023-03-05T03:17:49.729Z,100.00
2023-03-05T03:20:19.064Z,100.00
2023-03-05T03:22:48.087Z,100.00
2023-03-05T03:25:17.493Z,100.00
2023-03-05T03:27:45.683Z,100.00
2023-03-05T03:30:17.335Z,100.00
2023-03-05T03:32:45.572Z,100.00
2023-03-05T03:35:14.693Z,100.00
2023-03-05T03:37:42.782Z,100.00
2023-03-05T03:40:12.587Z,100.00
2023-03-05T03:42:40.623Z,100.00
2023-03-05T03:45:09.813Z,100.00
2023-03-05T03:47:39.396Z,100.00
2023-03-05T03:50:08.342Z,100.00
2023-03-05T03:52:36.471Z,100.00
2023-03-05T03:55:04.875Z,100.00
2023-03-05T03:57:33.525Z,100.00
2023-03-05T04:00:01.814Z,100.00
2023-03-05T04:02:29.909Z,100.00
2023-03-05T04:04:59.337Z,100.00
2023-03-05T04:07:27.592Z,100.00
2023-03-05T04:09:55.872Z,100.00
2023-03-05T04:12:23.909Z,100.00
2023-03-05T04:14:52.033Z,100.00
2023-03-05T04:17:20.034Z,100.00
2023-03-05T04:19:48.104Z,100.00
2023-03-05T04:22:18.832Z,100.00
2023-03-05T04:24:47.144Z,100.00
2023-03-05T04:27:15.136Z,100.00
2023-03-05T04:29:43.276Z,100.00
2023-03-05T04:32:11.501Z,100.00
2023-03-05T04:34:39.780Z,100.00
2023-03-05T04:37:08.691Z,100.00
2023-03-05T04:39:38.317Z,100.00
2023-03-05T04:42:06.760Z,100.00
2023-03-05T04:44:34.733Z,100.00
2023-03-05T04:47:02.660Z,100.00
2023-03-05T04:49:30.984Z,100.00
2023-03-05T04:51:59.028Z,100.00
2023-03-05T04:54:27.214Z,100.00
2023-03-05T04:56:56.717Z,100.00
2023-03-05T04:59:24.949Z,100.00
2023-03-05T05:01:53.003Z,100.00
2023-03-05T05:04:21.208Z,100.00
2023-03-05T05:06:49.170Z,100.00
2023-03-05T05:09:17.235Z,100.00
2023-03-05T05:11:45.368Z,100.00
2023-03-05T05:14:15.015Z,100.00
2023-03-05T05:16:43.120Z,100.00
2023-03-05T05:19:11.552Z,100.00
2023-03-05T05:21:39.936Z,100.00
2023-03-05T05:24:08.800Z,100.00
2023-03-05T05:26:37.092Z,100.00
2023-03-05T05:29:05.530Z,100.00
2023-03-05T05:31:35.127Z,100.00
2023-03-05T05:34:03.283Z,100.00
2023-03-05T05:36:31.376Z,100.00
2023-03-05T05:39:00.015Z,100.00
2023-03-05T05:41:28.091Z,100.00
2023-03-05T05:43:56.215Z,100.00
2023-03-05T05:46:24.897Z,100.00
2023-03-05T05:48:54.358Z,100.00
2023-03-05T05:51:24.399Z,100.00
2023-03-05T05:53:52.534Z,100.00
2023-03-05T05:56:21.258Z,100.00
2023-03-05T05:58:50.384Z,100.00
2023-03-05T06:01:23.608Z,100.00
2023-03-05T06:03:52.530Z,100.00
2023-03-05T06:06:29.387Z,100.00
2023-03-05T06:08:59.181Z,100.00
2023-03-05T06:11:27.174Z,100.00
2023-03-05T06:13:55.359Z,100.00
2023-03-05T06:16:25.862Z,100.00
2023-03-05T06:18:54.398Z,100.00
2023-03-05T06:21:24.617Z,100.00
2023-03-05T06:23:53.140Z,100.00
2023-03-05T06:26:23.307Z,100.00
2023-03-05T06:28:51.344Z,100.00
2023-03-05T06:31:21.963Z,100.00
2023-03-05T06:33:50.741Z,100.00
2023-03-05T06:36:20.785Z,100.00
2023-03-05T06:38:53.110Z,100.00
2023-03-05T06:41:23.228Z,100.00
2023-03-05T06:43:51.794Z,100.00
2023-03-05T06:46:21.646Z,100.00
2023-03-05T06:48:50.480Z,100.00
2023-03-05T06:51:21.208Z,100.00
2023-03-05T06:53:50.908Z,100.00
2023-03-05T06:56:20.251Z,100.00
2023-03-05T06:58:50.648Z,100.00
2023-03-05T07:01:19.726Z,100.00
2023-03-05T07:03:50.919Z,100.00
2023-03-05T07:06:19.807Z,100.00
2023-03-05T07:08:48.015Z,100.00
2023-03-05T07:11:19.612Z,100.00
2023-03-05T07:13:48.764Z,100.00
2023-03-05T07:16:18.677Z,100.00
2023-03-05T07:18:47.203Z,100.00
2023-03-05T07:21:18.515Z,100.00
2023-03-05T07:23:47.029Z,100.00
2023-03-05T07:26:15.404Z,100.00
2023-03-05T07:28:45.195Z,100.00
2023-03-05T07:31:15.052Z,100.00
2023-03-05T07:33:43.181Z,100.00
2023-03-05T07:36:11.949Z,100.00
2023-03-05T07:38:40.193Z,99.32
2023-03-05T07:41:10.452Z,97.33
2023-03-05T07:43:39.006Z,97.59
2023-03-05T07:46:10.127Z,97.11
2023-03-05T07:48:38.383Z,95.35
2023-03-05T07:51:08.680Z,93.07
2023-03-05T07:53:36.954Z,93.23
2023-03-05T07:56:05.520Z,90.04
2023-03-05T07:58:33.746Z,89.03
2023-03-05T08:01:01.756Z,88.23
2023-03-05T08:03:31.255Z,87.97
2023-03-05T08:05:59.326Z,87.60
2023-03-05T08:08:27.356Z,86.60
2023-03-05T08:10:55.337Z,85.63
2023-03-05T08:13:23.380Z,84.08
2023-03-05T08:15:51.559Z,82.39
2023-03-05T08:18:19.635Z,78.99
2023-03-05T08:20:49.072Z,79.67
2023-03-05T08:23:17.129Z,78.77
2023-03-05T08:25:45.212Z,77.46
2023-03-05T08:28:13.406Z,75.14
2023-03-05T08:30:42.432Z,72.67
2023-03-05T08:33:10.398Z,72.22
2023-03-05T08:35:38.494Z,73.80
2023-03-05T08:38:08.061Z,71.72
2023-03-05T08:40:36.029Z,71.32
2023-03-05T08:43:05.861Z,70.31
2023-03-05T08:45:33.862Z,70.08
2023-03-05T08:48:01.918Z,69.55
2023-03-05T08:50:29.973Z,67.41
2023-03-05T08:52:58.134Z,67.38
2023-03-05T08:55:27.654Z,69.36
2023-03-05T08:57:55.702Z,66.93
2023-03-05T09:00:24.303Z,65.57
2023-03-05T09:02:52.507Z,65.38
2023-03-05T09:05:20.790Z,63.87
2023-03-05T09:07:48.973Z,64.34
2023-03-05T09:10:18.386Z,64.94
2023-03-05T09:12:49.245Z,63.04
2023-03-05T09:15:17.496Z,62.90
2023-03-05T09:17:45.566Z,63.06
2023-03-05T09:20:15.449Z,60.76
2023-03-05T09:22:43.662Z,60.05
2023-03-05T09:25:13.196Z,59.80
2023-03-05T09:27:41.267Z,59.52
2023-03-05T09:30:13.630Z,59.30
2023-03-05T09:32:41.901Z,59.76
2023-03-05T09:35:11.196Z,58.39
2023-03-05T09:37:39.299Z,58.06
2023-03-05T09:40:08.737Z,58.37
2023-03-05T09:42:49.554Z,57.25
2023-03-05T09:45:27.691Z,56.14
2023-03-05T09:48:07.538Z,56.92
2023-03-05T09:50:40.302Z,56.77
2023-03-05T09:53:24.630Z,56.85
2023-03-05T09:55:55.161Z,56.09
2023-03-05T09:58:35.331Z,55.74
2023-03-05T10:01:08.034Z,55.67
2023-03-05T10:03:52.602Z,55.13
2023-03-05T10:06:24.056Z,52.06
2023-03-05T10:08:57.141Z,52.41
2023-03-05T10:11:39.530Z,50.74
2023-03-05T10:14:13.889Z,51.94
2023-03-05T10:16:57.363Z,52.14
2023-03-05T10:19:49.976Z,52.11
2023-03-05T10:22:22.043Z,52.64
2023-03-05T10:25:15.172Z,52.91
2023-03-05T10:27:49.553Z,53.56
2023-03-05T10:30:40.105Z,53.17
2023-03-05T10:33:20.418Z,52.70
2023-03-05T10:36:03.330Z,52.66
2023-03-05T10:38:54.824Z,53.49
2023-03-05T10:41:31.013Z,52.87
2023-03-05T10:44:06.181Z,52.51
2023-03-05T10:46:38.103Z,54.10
2023-03-05T10:49:19.031Z,53.57
2023-03-05T10:51:53.106Z,53.58
2023-03-05T10:54:27.066Z,54.59
2023-03-05T10:57:05.767Z,52.96
2023-03-05T10:59:34.051Z,53.32
2023-03-05T11:02:08.896Z,53.10
2023-03-05T11:04:40.699Z,53.12
2023-03-05T11:07:30.476Z,52.69
2023-03-05T11:10:06.614Z,53.05
2023-03-05T11:12:35.669Z,52.92
2023-03-05T11:15:07.174Z,52.77
2023-03-05T11:17:38.649Z,52.44
2023-03-05T11:20:33.925Z,52.31
2023-03-05T11:23:10.673Z,52.26
2023-03-05T11:25:54.158Z,52.85
2023-03-05T11:28:33.031Z,51.76
2023-03-05T11:31:05.658Z,50.93
2023-03-05T11:33:34.111Z,51.83
2023-03-05T11:36:22.383Z,52.27
2023-03-05T11:38:54.649Z,51.50
2023-03-05T11:41:29.557Z,51.48
2023-03-05T11:44:00.196Z,51.48
2023-03-05T11:46:29.245Z,50.63
2023-03-05T11:48:59.270Z,51.42
2023-03-05T11:51:37.667Z,50.81
2023-03-05T11:54:13.321Z,50.78
2023-03-05T11:56:44.887Z,50.76
2023-03-05T11:59:17.988Z,50.10
2023-03-05T12:01:51.322Z,50.80
2023-03-05T12:04:20.664Z,50.02
2023-03-05T12:06:51.775Z,49.79
2023-03-05T12:09:28.435Z,49.80
2023-03-05T12:12:05.885Z,49.08
2023-03-05T12:14:46.270Z,49.33
2023-03-05T12:17:20.198Z,49.16
2023-03-05T12:19:54.971Z,49.15
2023-03-05T12:22:27.342Z,49.12
2023-03-05T12:25:26.768Z,48.95
2023-03-05T12:27:55.014Z,48.20
2023-03-05T12:30:56.391Z,47.88
2023-03-05T12:33:34.107Z,47.72
2023-03-05T12:36:37.195Z,47.32
2023-03-05T12:39:47.727Z,47.30
2023-03-05T12:42:52.732Z,47.22
2023-03-05T12:45:29.852Z,47.84
2023-03-05T12:48:44.041Z,47.90
2023-03-05T12:51:29.303Z,47.61
2023-03-05T12:53:57.596Z,47.47
2023-03-05T12:56:32.890Z,47.45
2023-03-05T12:59:02.991Z,46.95
2023-03-05T13:01:37.374Z,46.44
2023-03-05T13:04:11.099Z,43.99
2023-03-05T13:06:40.323Z,40.97
2023-03-05T13:09:17.236Z,38.79
2023-03-05T13:11:51.145Z,37.77
2023-03-05T13:14:36.269Z,36.52
2023-03-05T13:17:24.943Z,36.64
2023-03-05T13:19:54.032Z,35.37
2023-03-05T13:22:24.648Z,36.11
2023-03-05T13:25:11.965Z,35.93
2023-03-05T13:27:41.659Z,35.38
2023-03-05T13:30:22.867Z,36.34
2023-03-05T13:32:53.013Z,35.69
2023-03-05T13:35:22.687Z,35.65
2023-03-05T13:37:51.096Z,35.04
2023-03-05T13:40:25.000Z,33.99
2023-03-05T13:42:56.738Z,34.26
2023-03-05T13:45:28.344Z,33.36
2023-03-05T13:47:59.503Z,33.49
2023-03-05T13:50:31.031Z,33.84
2023-03-05T13:53:16.936Z,34.03
2023-03-05T13:55:45.175Z,34.43
2023-03-05T13:58:47.522Z,33.82
2023-03-05T14:01:22.925Z,33.07
2023-03-05T14:03:52.491Z,33.23
2023-03-05T14:06:22.931Z,33.35
2023-03-05T14:08:53.314Z,32.87
2023-03-05T14:11:24.249Z,32.32
2023-03-05T14:14:05.143Z,31.94
2023-03-05T14:16:33.828Z,30.99
2023-03-05T14:19:03.613Z,31.04
2023-03-05T14:21:48.230Z,30.98
2023-03-05T14:24:22.857Z,31.50
2023-03-05T14:26:53.909Z,31.67
2023-03-05T14:29:27.786Z,31.95
2023-03-05T14:31:58.748Z,32.40
2023-03-05T14:34:30.736Z,32.62
2023-03-05T14:37:01.127Z,32.60
2023-03-05T14:39:31.359Z,33.21
2023-03-05T14:42:15.856Z,33.36
2023-03-05T14:44:45.307Z,33.67
2023-03-05T14:47:13.422Z,34.08
2023-03-05T14:49:41.347Z,34.49
2023-03-05T14:52:14.749Z,34.83
2023-03-05T14:54:42.970Z,34.41
2023-03-05T14:57:16.545Z,35.38
2023-03-05T14:59:46.061Z,36.15
2023-03-05T15:02:17.349Z,36.74
2023-03-05T15:04:46.938Z,37.20
2023-03-05T15:07:20.945Z,37.45
2023-03-05T15:09:49.236Z,38.55
2023-03-05T15:12:18.504Z,38.72
2023-03-05T15:14:48.001Z,39.34
2023-03-05T15:17:20.346Z,39.62
2023-03-05T15:19:49.146Z,40.15
2023-03-05T15:22:17.995Z,40.82
2023-03-05T15:24:46.140Z,41.08
2023-03-05T15:27:14.648Z,42.29
2023-03-05T15:29:42.780Z,43.37
2023-03-05T15:32:12.432Z,44.32
2023-03-05T15:34:40.436Z,46.14
2023-03-05T15:37:08.746Z,48.04
2023-03-05T15:39:36.891Z,49.59
2023-03-05T15:42:06.438Z,50.88
2023-03-05T15:44:34.695Z,51.87
2023-03-05T15:47:02.795Z,53.55
2023-03-05T15:49:32.231Z,54.58
2023-03-05T15:52:00.774Z,55.62
2023-03-05T15:54:28.884Z,56.70
2023-03-05T15:56:56.985Z,58.66
2023-03-05T15:59:25.238Z,60.06
2023-03-05T16:01:53.718Z,60.91
2023-03-05T16:04:21.853Z,61.73
2023-03-05T16:06:51.765Z,62.93
2023-03-05T16:09:21.773Z,63.41
2023-03-05T16:11:51.622Z,64.87
2023-03-05T16:14:24.290Z,66.12
2023-03-05T16:16:54.815Z,65.39
2023-03-05T16:19:24.535Z,66.04
2023-03-05T16:21:54.038Z,66.41
2023-03-05T16:24:22.246Z,66.26
2023-03-05T16:26:50.243Z,66.35
2023-03-05T16:29:18.421Z,65.74
2023-03-05T16:31:47.688Z,65.95
2023-03-05T16:34:16.333Z,65.73
2023-03-05T16:36:49.072Z,67.03
2023-03-05T16:39:18.493Z,66.64
2023-03-05T16:41:46.682Z,66.31
2023-03-05T16:44:15.056Z,66.41
2023-03-05T16:46:47.206Z,67.22
2023-03-05T16:49:15.454Z,67.85
2023-03-05T16:51:43.494Z,68.56
2023-03-05T16:54:11.528Z,68.78
2023-03-05T16:56:40.897Z,69.64
2023-03-05T16:59:08.840Z,70.20
2023-03-05T17:01:37.053Z,70.96
2023-03-05T17:04:05.289Z,71.39
2023-03-05T17:06:34.844Z,72.08
2023-03-05T17:09:03.771Z,72.18
2023-03-05T17:11:34.592Z,72.58
2023-03-05T17:14:04.510Z,72.55
2023-03-05T17:16:32.709Z,73.24
2023-03-05T17:19:00.742Z,72.36
2023-03-05T17:21:28.907Z,71.82
2023-03-05T17:23:57.000Z,71.06
2023-03-05T17:26:24.990Z,71.19
2023-03-05T17:28:54.502Z,70.14
2023-03-05T17:31:24.160Z,67.73
2023-03-05T17:33:52.358Z,65.38
2023-03-05T17:36:21.949Z,64.89
2023-03-05T17:38:51.091Z,64.40
2023-03-05T17:41:20.094Z,63.90
2023-03-05T17:43:48.106Z,64.69
2023-03-05T17:46:17.218Z,64.72
2023-03-05T17:48:46.800Z,64.52
2023-03-05T17:51:16.788Z,65.25
2023-03-05T17:53:45.160Z,66.22
2023-03-05T17:56:17.217Z,67.36
2023-03-05T17:58:45.302Z,67.66
2023-03-05T18:01:13.269Z,67.80
2023-03-05T18:03:41.307Z,64.50
2023-03-05T18:06:10.669Z,63.09
2023-03-05T18:08:39.486Z,62.55
2023-03-05T18:11:07.592Z,61.39
2023-03-05T18:13:35.667Z,59.03
2023-03-05T18:16:04.038Z,58.02
2023-03-05T18:18:32.041Z,56.18
2023-03-05T18:21:00.176Z,56.20
2023-03-05T18:23:29.652Z,57.16
2023-03-05T18:25:59.462Z,57.67
2023-03-05T18:28:27.775Z,58.05
2023-03-05T18:30:55.814Z,57.72
2023-03-05T18:33:25.947Z,58.44
2023-03-05T18:35:54.740Z,57.79
2023-03-05T18:38:24.261Z,57.67
2023-03-05T18:40:55.260Z,57.08
2023-03-05T18:43:24.785Z,57.79
2023-03-05T18:45:55.696Z,58.25
2023-03-05T18:48:24.291Z,58.41
2023-03-05T18:50:58.521Z,58.77
2023-03-05T18:53:27.297Z,59.09
2023-03-05T18:56:03.178Z,59.98
2023-03-05T18:58:31.470Z,60.32
2023-03-05T19:01:04.367Z,59.73
2023-03-05T19:03:32.683Z,59.41
2023-03-05T19:06:01.817Z,59.53
2023-03-05T19:08:30.124Z,60.41
2023-03-05T19:11:02.878Z,59.68
2023-03-05T19:13:40.839Z,60.17
2023-03-05T19:16:11.404Z,60.87
2023-03-05T19:19:06.375Z,61.48
2023-03-05T19:21:34.400Z,61.20
2023-03-05T19:24:02.470Z,61.75
2023-03-05T19:26:31.816Z,60.74
2023-03-05T19:28:59.764Z,60.33
2023-03-05T19:31:27.888Z,60.79
2023-03-05T19:33:56.007Z,59.77
2023-03-05T19:36:24.490Z,59.59
2023-03-05T19:38:52.586Z,59.51
2023-03-05T19:41:21.840Z,59.25
2023-03-05T19:43:51.255Z,59.34
2023-03-05T19:46:19.547Z,59.47
2023-03-05T19:48:47.718Z,59.61
2023-03-05T19:51:19.152Z,59.07
2023-03-05T19:53:48.189Z,58.60
2023-03-05T19:56:17.454Z,58.42
2023-03-05T19:58:48.906Z,57.35
2023-03-05T20:01:20.156Z,57.81
2023-03-05T20:03:49.883Z,57.68
2023-03-05T20:06:18.666Z,58.06
2023-03-05T20:08:47.199Z,58.12
2023-03-05T20:11:17.048Z,57.26
2023-03-05T20:13:45.649Z,58.18
2023-03-05T20:16:19.812Z,57.66
2023-03-05T20:18:52.609Z,58.29
2023-03-05T20:21:23.222Z,58.15
2023-03-05T20:23:51.661Z,58.42
2023-03-05T20:26:19.998Z,58.55
2023-03-05T20:28:48.600Z,59.21
2023-03-05T20:31:21.202Z,59.63
2023-03-05T20:33:49.552Z,59.99
2023-03-05T20:36:17.804Z,61.32
2023-03-05T20:38:46.392Z,61.75
2023-03-05T20:41:16.717Z,61.90
2023-03-05T20:43:46.605Z,63.27
2023-03-05T20:46:21.589Z,64.47
2023-03-05T20:48:49.932Z,66.49
2023-03-05T20:51:22.514Z,66.43
2023-03-05T20:53:50.917Z,68.27
2023-03-05T20:56:19.007Z,68.82
2023-03-05T20:58:47.039Z,70.55
2023-03-05T21:01:15.142Z,71.40
2023-03-05T21:03:44.698Z,71.80
2023-03-05T21:06:12.724Z,72.39
2023-03-05T21:08:41.030Z,73.03
2023-03-05T21:11:10.167Z,73.30
2023-03-05T21:13:38.950Z,73.14
2023-03-05T21:16:08.539Z,73.98
2023-03-05T21:18:36.730Z,74.15
2023-03-05T21:21:08.118Z,75.21
2023-03-05T21:23:36.645Z,75.07
2023-03-05T21:26:05.183Z,75.29
2023-03-05T21:28:33.433Z,76.53
2023-03-05T21:31:08.465Z,76.98
2023-03-05T21:33:36.702Z,78.36
2023-03-05T21:36:07.315Z,78.12
2023-03-05T21:38:35.357Z,79.33
2023-03-05T21:41:04.019Z,79.23
2023-03-05T21:43:32.634Z,80.07
2023-03-05T21:46:03.125Z,80.22
2023-03-05T21:48:32.000Z,80.84
2023-03-05T21:51:00.504Z,81.58
2023-03-05T21:53:29.834Z,81.61
2023-03-05T21:56:25.478Z,82.56
2023-03-05T21:58:54.056Z,82.16
2023-03-05T22:01:22.707Z,82.85
2023-03-05T22:03:51.248Z,83.43
2023-03-05T22:06:20.058Z,83.36
2023-03-05T22:08:49.993Z,83.40
2023-03-05T22:11:20.792Z,83.98
2023-03-05T22:13:48.842Z,84.15
2023-03-05T22:16:23.757Z,84.61
2023-03-05T22:18:51.619Z,85.01
2023-03-05T22:21:23.033Z,83.96
2023-03-05T22:23:53.443Z,84.64
2023-03-05T22:26:21.560Z,85.51
2023-03-05T22:28:49.679Z,85.95
2023-03-05T22:31:22.332Z,85.96
2023-03-05T22:33:50.898Z,86.34
2023-03-05T22:36:19.373Z,86.90
2023-03-05T22:38:47.615Z,86.86
2023-03-05T22:41:19.724Z,87.02
2023-03-05T22:43:48.912Z,87.27
2023-03-05T22:46:20.063Z,87.24
2023-03-05T22:48:48.210Z,87.89
2023-03-05T22:51:17.336Z,87.57
2023-03-05T22:53:45.987Z,87.75
2023-03-05T22:56:17.489Z,88.15
2023-03-05T22:58:45.693Z,87.37
2023-03-05T23:01:14.776Z,86.59
2023-03-05T23:04:00.490Z,86.61
2023-03-05T23:06:28.783Z,86.13
2023-03-05T23:08:56.886Z,85.60
2023-03-05T23:11:26.209Z,84.76
2023-03-05T23:13:54.162Z,83.73
2023-03-05T23:16:22.172Z,82.71
2023-03-05T23:18:50.270Z,81.43
2023-03-05T23:21:18.350Z,79.79
2023-03-05T23:23:46.512Z,78.70
2023-03-05T23:26:14.491Z,78.27
2023-03-05T23:28:44.069Z,78.26
2023-03-05T23:31:12.231Z,78.00
2023-03-05T23:33:40.284Z,77.45
2023-03-05T23:36:09.697Z,77.08
2023-03-05T23:38:37.861Z,76.75
2023-03-05T23:41:09.475Z,75.69
2023-03-05T23:43:37.689Z,75.08
2023-03-05T23:46:11.679Z,72.79
2023-03-05T23:48:39.908Z,72.22
2023-03-05T23:51:09.916Z,71.50
2023-03-05T23:53:37.856Z,70.91
2023-03-05T23:56:11.241Z,70.12
2023-03-05T23:58:39.806Z,69.98
